createdAt,value
2023-11-12T00:01:36.915Z,53.40
2023-11-12T00:04:38.731Z,52.40
2023-11-12T00:07:41.453Z,53.20
2023-11-12T00:10:43.286Z,54.40
2023-11-12T00:13:44.983Z,55.40
2023-11-12T00:16:49.313Z,54.10
2023-11-12T00:19:51.626Z,55.20
2023-11-12T00:22:53.365Z,55.20
2023-11-12T00:25:55.783Z,56.00
2023-11-12T00:28:57.553Z,54.70
2023-11-12T00:31:59.538Z,55.90
2023-11-12T00:35:02.126Z,57.90
2023-11-12T00:38:04.293Z,54.90
2023-11-12T00:41:06.088Z,58.60
2023-11-12T00:44:08.105Z,59.00
2023-11-12T00:47:10.116Z,60.50
2023-11-12T00:50:11.773Z,59.90
2023-11-12T00:56:15.716Z,62.20
2023-11-12T00:59:17.420Z,62.90
2023-11-12T01:02:21.091Z,63.90
2023-11-12T01:05:22.848Z,66.00
2023-11-12T01:08:24.545Z,68.00
2023-11-12T01:11:26.467Z,68.80
2023-11-12T01:14:28.179Z,68.60
2023-11-12T01:17:30.230Z,67.60
2023-11-12T01:20:31.911Z,67.60
2023-11-12T01:26:35.259Z,68.70
2023-11-12T01:29:36.831Z,72.20
2023-11-12T01:35:40.249Z,74.00
2023-11-12T01:38:41.977Z,77.40
2023-11-12T01:41:43.998Z,76.10
2023-11-12T01:44:46.688Z,79.40
2023-11-12T01:47:48.676Z,74.90
2023-11-12T01:50:51.424Z,77.20
2023-11-12T01:53:53.853Z,79.00
2023-11-12T01:56:55.688Z,76.90
2023-11-12T01:59:57.428Z,75.50
2023-11-12T02:02:59.727Z,78.00
2023-11-12T02:06:05.383Z,75.40
2023-11-12T02:09:07.060Z,75.60
2023-11-12T02:12:09.276Z,76.80
2023-11-12T02:15:11.602Z,77.60
2023-11-12T02:18:13.402Z,76.20
2023-11-12T02:21:15.119Z,76.00
2023-11-12T02:24:16.908Z,76.40
2023-11-12T02:27:18.742Z,80.90
2023-11-12T02:30:20.668Z,78.80
2023-11-12T02:33:22.676Z,81.70
2023-11-12T02:36:24.384Z,80.30
2023-11-12T02:39:26.149Z,82.20
2023-11-12T02:42:28.005Z,81.30
2023-11-12T02:45:29.960Z,86.10
2023-11-12T02:49:03.224Z,89.20
2023-11-12T02:52:04.928Z,89.20
2023-11-12T02:55:07.072Z,90.00
2023-11-12T02:58:08.685Z,91.90
2023-11-12T03:01:10.662Z,97.40
2023-11-12T03:04:12.494Z,99.90
2023-11-12T03:07:14.384Z,96.90
2023-11-12T03:10:16.061Z,98.70
2023-11-12T03:13:17.797Z,93.40
2023-11-12T03:16:19.495Z,92.70
2023-11-12T03:22:22.811Z,89.30
2023-11-12T03:28:26.253Z,86.90
2023-11-12T03:31:28.195Z,85.60
2023-11-12T03:34:29.898Z,83.60
2023-11-12T03:37:31.990Z,80.40
2023-11-12T03:40:33.650Z,79.40
2023-11-12T03:46:37.110Z,72.40
2023-11-12T03:49:39.622Z,74.30
2023-11-12T03:52:41.355Z,73.50
2023-11-12T03:58:44.632Z,73.30
2023-11-12T04:04:48.042Z,72.30
2023-11-12T04:07:50.682Z,73.30
2023-11-12T04:10:52.927Z,72.90
2023-11-12T04:13:54.641Z,75.60
2023-11-12T04:16:56.362Z,76.80
2023-11-12T04:23:00.312Z,79.40
2023-11-12T04:26:02.257Z,75.10
2023-11-12T04:29:04.064Z,71.80
2023-11-12T04:32:06.055Z,75.20
2023-11-12T04:35:08.309Z,71.80
2023-11-12T04:38:09.995Z,71.10
2023-11-12T04:41:11.719Z,71.10
2023-11-12T04:47:15.187Z,69.70
2023-11-12T04:50:16.875Z,70.40
2023-11-12T04:53:18.628Z,68.20
2023-11-12T05:02:23.919Z,69.80
2023-11-12T05:05:25.653Z,70.70
2023-11-12T05:08:28.240Z,71.70
2023-11-12T05:11:30.053Z,72.10
2023-11-12T05:17:33.381Z,68.60
2023-11-12T05:26:38.550Z,68.10
2023-11-12T05:32:41.775Z,64.00
2023-11-12T05:38:45.205Z,57.30
2023-11-12T05:44:48.805Z,47.20
2023-11-12T05:47:50.740Z,43.70
2023-11-12T05:50:52.370Z,41.10
2023-11-12T05:59:57.500Z,39.40
2023-11-12T06:02:59.401Z,42.10
2023-11-12T06:06:01.172Z,40.50
2023-11-12T06:09:02.841Z,42.40
2023-11-12T06:18:08.724Z,45.40
2023-11-12T06:21:10.489Z,44.80
2023-11-12T06:24:12.271Z,43.50
2023-11-12T06:27:14.098Z,41.70
2023-11-12T06:30:15.743Z,43.80
2023-11-12T06:39:20.884Z,38.50
2023-11-12T06:45:24.363Z,34.30
2023-11-12T06:48:26.641Z,32.30
2023-11-12T06:51:28.463Z,34.50
2023-11-12T06:54:30.579Z,30.60
2023-11-12T06:57:32.290Z,26.90
2023-11-12T07:00:34.014Z,23.40
2023-11-12T07:03:38.959Z,23.20
2023-11-12T07:06:41.074Z,22.10
2023-11-12T07:09:43.688Z,20.70
2023-11-12T07:12:45.535Z,20.90
2023-11-12T07:15:47.440Z,20.50
2023-11-12T07:18:54.238Z,18.10
2023-11-12T07:21:56.697Z,19.20
2023-11-12T07:28:02.710Z,16.50
2023-11-12T07:37:08.072Z,14.50
2023-11-12T07:40:10.848Z,16.00
2023-11-12T07:43:12.550Z,17.40
2023-11-12T07:46:14.449Z,18.70
2023-11-12T07:49:16.291Z,20.40
2023-11-12T07:52:18.106Z,21.30
2023-11-12T07:58:21.585Z,22.40
2023-11-12T08:01:23.217Z,24.90
2023-11-12T08:04:25.101Z,25.10
2023-11-12T08:07:26.863Z,25.60
2023-11-12T08:10:28.469Z,26.80
2023-11-12T08:16:31.915Z,26.10
2023-11-12T08:19:33.870Z,26.00
2023-11-12T08:22:35.526Z,25.30
2023-11-12T08:28:38.761Z,25.50
2023-11-12T08:31:40.696Z,22.70
2023-11-12T08:34:42.538Z,24.40
2023-11-12T08:37:44.482Z,23.90
2023-11-12T08:40:46.220Z,22.80
2023-11-12T08:46:52.423Z,24.70
2023-11-12T08:49:55.253Z,26.00
2023-11-12T08:52:57.078Z,29.60
2023-11-12T08:55:58.895Z,26.80
2023-11-12T08:59:00.824Z,27.40
2023-11-12T09:02:02.582Z,26.70
2023-11-12T09:05:04.876Z,24.30
2023-11-12T09:08:06.648Z,24.90
2023-11-12T09:11:09.020Z,23.90
2023-11-12T09:14:11.594Z,24.10
2023-11-12T09:17:13.331Z,23.90
2023-11-12T09:20:15.113Z,24.40
2023-11-12T09:23:16.795Z,25.60
2023-11-12T09:29:23.574Z,26.30
2023-11-12T09:35:26.982Z,25.40
2023-11-12T09:38:28.744Z,26.90
2023-11-12T09:44:32.957Z,26.80
2023-11-12T09:47:46.531Z,28.20
2023-11-12T09:50:48.854Z,28.80
2023-11-12T09:53:51.651Z,27.70
2023-11-12T09:57:06.157Z,28.60
2023-11-12T10:00:11.618Z,29.50
2023-11-12T10:03:13.772Z,32.40
2023-11-12T10:06:15.510Z,29.10
2023-11-12T10:09:30.881Z,30.20
2023-11-12T10:12:32.600Z,30.50
2023-11-12T10:15:34.940Z,31.20
2023-11-12T10:18:36.957Z,30.00
2023-11-12T10:24:59.726Z,32.40
2023-11-12T10:28:01.476Z,33.20
2023-11-12T10:31:03.347Z,33.00
2023-11-12T10:34:05.147Z,32.50
2023-11-12T10:37:10.331Z,34.20
2023-11-12T10:40:12.698Z,31.80
2023-11-12T10:43:14.586Z,30.20
2023-11-12T10:46:16.315Z,29.20
2023-11-12T10:49:18.041Z,26.30
2023-11-12T10:52:19.935Z,25.00
2023-11-12T10:55:22.935Z,26.40
2023-11-12T10:58:24.940Z,24.80
2023-11-12T11:01:26.990Z,24.10
2023-11-12T11:04:30.129Z,22.90
2023-11-12T11:07:31.874Z,22.70
2023-11-12T11:10:37.010Z,22.90
2023-11-12T11:13:39.052Z,23.00
2023-11-12T11:16:47.988Z,22.70
2023-11-12T11:19:49.783Z,22.50
2023-11-12T11:22:51.711Z,22.60
2023-11-12T11:26:33.640Z,21.00
2023-11-12T11:32:37.421Z,21.30
2023-11-12T11:35:39.227Z,21.20
2023-11-12T11:38:41.010Z,19.30
2023-11-12T11:41:51.696Z,19.60
2023-11-12T11:45:00.680Z,17.30
2023-11-12T11:48:06.427Z,16.40
2023-11-12T11:51:34.302Z,16.30
2023-11-12T11:54:36.621Z,15.60
2023-11-12T11:57:46.315Z,14.90
2023-11-12T12:00:58.965Z,15.60
2023-11-12T12:04:04.465Z,13.20
2023-11-12T12:07:06.220Z,13.40
2023-11-12T12:10:08.373Z,13.00
2023-11-12T12:13:10.101Z,13.70
2023-11-12T12:16:11.830Z,12.00
2023-11-12T12:19:21.821Z,12.50
2023-11-12T12:22:29.280Z,11.70
2023-11-12T12:25:32.795Z,10.70
2023-11-12T12:28:34.527Z,10.60
2023-11-12T12:31:36.413Z,10.50
2023-11-12T12:34:42.123Z,10.40
2023-11-12T12:37:43.965Z,9.60
2023-11-12T12:40:50.773Z,10.60
2023-11-12T12:43:53.056Z,10.30
2023-11-12T12:46:54.882Z,9.90
2023-11-12T12:49:56.620Z,9.90
2023-11-12T12:53:15.037Z,9.70
2023-11-12T12:56:16.948Z,10.00
2023-11-12T12:59:18.731Z,8.90
2023-11-12T13:02:20.409Z,9.40
2023-11-12T13:05:22.236Z,9.00
2023-11-12T13:08:24.090Z,8.40
2023-11-12T13:11:25.679Z,8.80
2023-11-12T13:17:28.878Z,8.60
2023-11-12T13:20:30.798Z,9.70
2023-11-12T13:23:33.441Z,9.10
2023-11-12T13:26:35.222Z,9.20
2023-11-12T13:29:36.949Z,9.80
2023-11-12T13:32:39.165Z,9.40
2023-11-12T13:35:41.020Z,9.50
2023-11-12T13:38:43.018Z,9.60
2023-11-12T13:41:44.838Z,9.20
2023-11-12T13:44:49.701Z,9.50
2023-11-12T13:47:52.685Z,9.90
2023-11-12T13:50:54.320Z,10.00
2023-11-12T13:53:56.062Z,9.90
2023-11-12T13:56:57.858Z,10.00
2023-11-12T13:59:59.713Z,9.80
2023-11-12T14:03:01.775Z,10.10
2023-11-12T14:06:04.524Z,9.80
2023-11-12T14:09:06.258Z,9.20
2023-11-12T14:12:08.483Z,9.60
2023-11-12T14:15:10.854Z,9.30
2023-11-12T14:18:13.257Z,9.60
2023-11-12T14:21:14.979Z,10.00
2023-11-12T14:24:16.805Z,8.80
2023-11-12T14:27:18.444Z,9.10
2023-11-12T14:30:20.459Z,9.60
2023-11-12T14:33:22.851Z,9.20
2023-11-12T14:36:24.632Z,8.80
2023-11-12T14:39:26.291Z,8.70
2023-11-12T14:42:28.035Z,8.70
2023-11-12T14:45:31.269Z,8.40
2023-11-12T14:48:33.332Z,9.10
2023-11-12T14:51:35.712Z,9.10
2023-11-12T14:54:37.503Z,7.90
2023-11-12T14:57:40.567Z,8.50
2023-11-12T15:00:42.393Z,8.70
2023-11-12T15:03:44.338Z,8.90
2023-11-12T15:06:46.160Z,8.90
2023-11-12T15:09:47.916Z,9.80
2023-11-12T15:12:50.319Z,10.50
2023-11-12T15:15:52.453Z,10.50
2023-11-12T15:18:54.295Z,10.80
2023-11-12T15:21:55.943Z,11.60
2023-11-12T15:24:58.515Z,14.00
2023-11-12T15:28:00.485Z,12.40
2023-11-12T15:31:02.258Z,11.00
2023-11-12T15:34:06.376Z,11.80
2023-11-12T15:37:09.965Z,11.90
2023-11-12T15:40:12.170Z,11.80
2023-11-12T15:43:13.927Z,13.60
2023-11-12T15:46:15.635Z,18.90
2023-11-12T15:49:17.448Z,18.40
2023-11-12T15:52:19.262Z,17.80
2023-11-12T15:58:22.775Z,17.30
2023-11-12T16:01:24.566Z,14.80
2023-11-12T16:04:26.374Z,12.90
2023-11-12T16:07:28.112Z,12.70
2023-11-12T16:13:31.522Z,13.00
2023-11-12T16:19:34.836Z,13.40
2023-11-12T16:25:40.848Z,14.00
2023-11-12T16:28:42.583Z,15.00
2023-11-12T16:34:45.909Z,16.30
2023-11-12T16:40:49.399Z,17.90
2023-11-12T16:43:51.280Z,18.50
2023-11-12T16:46:52.967Z,20.00
2023-11-12T16:49:55.154Z,19.40
2023-11-12T16:52:57.113Z,19.20
2023-11-12T16:55:58.846Z,18.50
2023-11-12T16:59:00.683Z,19.60
2023-11-12T17:05:04.969Z,18.40
2023-11-12T17:08:06.755Z,18.30
2023-11-12T17:11:08.465Z,17.60
2023-11-12T17:14:10.465Z,17.00
2023-11-12T17:17:12.140Z,15.60
2023-11-12T17:20:13.997Z,14.50
2023-11-12T17:23:15.822Z,13.60
2023-11-12T17:26:17.618Z,13.40
2023-11-12T17:29:19.580Z,12.70
2023-11-12T17:32:21.404Z,11.80
2023-11-12T17:35:23.287Z,12.30
2023-11-12T17:38:25.086Z,11.70
2023-11-12T17:44:28.438Z,11.60
2023-11-12T17:47:30.414Z,11.80
2023-11-12T17:50:32.114Z,10.50
2023-11-12T17:53:34.071Z,11.50
2023-11-12T17:56:35.962Z,11.60
2023-11-12T17:59:37.664Z,11.80
2023-11-12T18:05:42.019Z,10.70
2023-11-12T18:08:43.855Z,11.10
2023-11-12T18:17:49.056Z,10.00
2023-11-12T18:20:55.671Z,10.60
2023-11-12T18:23:57.611Z,10.70
2023-11-12T18:26:59.236Z,10.30
2023-11-12T18:30:02.212Z,10.50
2023-11-12T18:33:04.015Z,10.10
2023-11-12T18:36:06.198Z,10.80
2023-11-12T18:39:07.907Z,10.70
2023-11-12T18:45:12.480Z,11.10
2023-11-12T18:48:14.177Z,11.30
2023-11-12T18:51:15.979Z,10.50
2023-11-12T18:54:17.715Z,10.70
2023-11-12T18:57:19.440Z,10.00
2023-11-12T19:00:21.642Z,9.80
2023-11-12T19:03:23.588Z,10.30
2023-11-12T19:06:25.339Z,10.30
2023-11-12T19:09:27.217Z,11.60
2023-11-12T19:12:28.993Z,12.80
2023-11-12T19:15:30.835Z,12.20
2023-11-12T19:18:32.689Z,15.70
2023-11-12T19:21:34.455Z,19.90
2023-11-12T19:24:37.041Z,20.20
2023-11-12T19:27:38.744Z,19.80
2023-11-12T19:30:40.716Z,17.80
2023-11-12T19:33:45.728Z,15.20
2023-11-12T19:36:47.471Z,13.60
2023-11-12T19:39:49.229Z,11.20
2023-11-12T19:42:51.200Z,10.90
2023-11-12T19:45:53.051Z,12.20
2023-11-12T19:48:54.906Z,11.90
2023-11-12T19:51:56.676Z,12.90
2023-11-12T19:54:58.540Z,15.50
2023-11-12T19:58:00.269Z,15.90
2023-11-12T20:01:02.148Z,16.60
2023-11-12T20:04:05.742Z,16.80
2023-11-12T20:07:07.746Z,15.20
2023-11-12T20:10:09.757Z,15.60
2023-11-12T20:13:11.765Z,16.80
2023-11-12T20:16:19.375Z,15.80
2023-11-12T20:19:21.049Z,16.70
2023-11-12T20:22:22.839Z,17.10
2023-11-12T20:25:24.634Z,16.20
2023-11-12T20:28:26.424Z,15.00
2023-11-12T20:31:28.164Z,16.70
2023-11-12T20:37:31.411Z,17.50
2023-11-12T20:40:33.173Z,18.10
2023-11-12T20:46:38.761Z,17.00
2023-11-12T20:49:40.609Z,17.80
2023-11-12T20:52:42.432Z,16.00
2023-11-12T20:55:44.280Z,15.30
2023-11-12T20:58:46.069Z,15.70
2023-11-12T21:04:49.505Z,15.70
2023-11-12T21:07:51.437Z,16.60
2023-11-12T21:10:53.381Z,15.00
2023-11-12T21:16:56.681Z,14.80
2023-11-12T21:23:00.170Z,13.40
2023-11-12T21:26:01.989Z,13.50
2023-11-12T21:32:05.711Z,13.70
2023-11-12T21:35:07.761Z,14.20
2023-11-12T21:38:09.487Z,14.70
2023-11-12T21:47:20.790Z,15.20
2023-11-12T21:50:22.673Z,16.00
2023-11-12T21:53:24.329Z,15.90
2023-11-12T21:59:31.142Z,14.90
2023-11-12T22:02:32.911Z,13.80
2023-11-12T22:11:45.840Z,14.30
2023-11-12T22:14:47.436Z,16.50
2023-11-12T22:17:49.449Z,18.10
2023-11-12T22:20:52.429Z,16.80
2023-11-12T22:23:54.141Z,14.00
2023-11-12T22:29:57.323Z,15.00
2023-11-12T22:32:58.970Z,15.50
2023-11-12T22:36:00.584Z,15.20
2023-11-12T22:42:04.079Z,18.90
2023-11-12T22:45:10.937Z,19.80
2023-11-12T22:48:12.755Z,18.70
2023-11-12T22:54:16.017Z,17.20
2023-11-12T23:03:32.267Z,24.30
2023-11-12T23:06:34.000Z,23.30
2023-11-12T23:09:35.730Z,24.20
2023-11-12T23:12:37.865Z,19.50
2023-11-12T23:15:40.639Z,22.80
2023-11-12T23:18:42.305Z,24.50
2023-11-12T23:24:45.680Z,22.60
2023-11-12T23:30:49.186Z,18.20
2023-11-12T23:33:51.181Z,19.20
2023-11-12T23:36:53.050Z,16.60
2023-11-12T23:39:54.693Z,17.40
2023-11-12T23:42:56.408Z,16.40
2023-11-12T23:48:59.945Z,15.80
2023-11-12T23:52:01.736Z,17.40
2023-11-12T23:55:05.283Z,16.70
2023-11-12T23:58:06.941Z,17.30
